Time;durP1;ratioP1;P1;durP2;ratioP2;P2;SDS_P1;SDS_P2;PMS_P1;PMS_P2;Temp;Humidity;BMP_temperature;BMP_pressure;BME280_temperature;BME280_humidity;BME280_pressure;Samples;Min_cycle;Max_cycle;Signal;HPM_P1;HPM_P2
2023/06/01 00:00:23;;;;;;;5.97;2.50;;;14.40;76.40;;;;;;5056809;28;20707;-77
2023/06/01 00:02:50;;;;;;;4.20;2.67;;;14.40;76.60;;;;;;5057236;28;20609;-77
2023/06/01 00:05:17;;;;;;;7.00;2.90;;;14.40;75.50;;;;;;5075249;28;20214;-77
2023/06/01 00:07:44;;;;;;;4.73;2.83;;;14.30;75.80;;;;;;5041158;28;20201;-78
2023/06/01 00:10:11;;;;;;;3.73;2.53;;;14.30;75.80;;;;;;5056937;28;20313;-77
2023/06/01 00:12:38;;;;;;;5.33;2.53;;;14.30;75.70;;;;;;5040219;28;20292;-77
2023/06/01 00:15:06;;;;;;;5.67;2.60;;;14.30;76.10;;;;;;5074657;28;20226;-78
2023/06/01 00:17:33;;;;;;;5.43;2.60;;;14.20;76.30;;;;;;5056737;28;20194;-77
2023/06/01 00:20:00;;;;;;;4.50;2.50;;;14.20;76.20;;;;;;5056786;28;20275;-77
2023/06/01 00:22:34;;;;;;;5.80;2.47;;;14.20;76.30;;;;;;5056897;28;20738;-77
2023/06/01 00:25:01;;;;;;;8.40;2.47;;;14.10;76.60;;;;;;5040421;28;20280;-77
2023/06/01 00:27:28;;;;;;;5.87;2.20;;;14.10;76.50;;;;;;5039756;28;20201;-77
2023/06/01 00:29:55;;;;;;;6.90;2.40;;;14.10;76.80;;;;;;5056332;28;20246;-78
2023/06/01 00:32:22;;;;;;;4.10;2.30;;;14.10;77.00;;;;;;5040180;28;20232;-78
2023/06/01 00:34:49;;;;;;;4.90;2.20;;;14.00;77.00;;;;;;5056720;28;20297;-78
2023/06/01 00:37:16;;;;;;;4.23;2.10;;;14.00;77.00;;;;;;5074525;28;20194;-79
2023/06/01 00:39:43;;;;;;;4.37;2.33;;;14.00;77.00;;;;;;5039716;28;20253;-77
2023/06/01 00:42:10;;;;;;;4.50;2.13;;;14.00;77.30;;;;;;5074536;28;20217;-78
2023/06/01 00:44:37;;;;;;;5.63;2.37;;;14.00;77.30;;;;;;5056320;28;20252;-79
2023/06/01 00:47:04;;;;;;;6.80;2.37;;;14.00;77.00;;;;;;5074196;28;20208;-78
2023/06/01 00:49:31;;;;;;;4.47;2.03;;;14.00;77.00;;;;;;5039184;28;20291;-78
2023/06/01 00:51:58;;;;;;;4.00;2.30;;;13.90;77.30;;;;;;5055952;28;20564;-76
2023/06/01 00:54:25;;;;;;;5.93;2.20;;;13.90;77.20;;;;;;5039537;28;20246;-77
2023/06/01 00:56:52;;;;;;;3.20;2.10;;;13.80;77.40;;;;;;5056051;28;20288;-77
2023/06/01 00:59:19;;;;;;;3.67;2.10;;;13.80;77.60;;;;;;5073500;28;20218;-77
2023/06/01 01:01:46;;;;;;;5.10;2.40;;;13.80;77.80;;;;;;5056185;28;20197;-77
2023/06/01 01:04:17;;;;;;;5.13;2.30;;;13.80;78.00;;;;;;5056141;28;20689;-77
2023/06/01 01:06:57;;;;;;;6.50;2.23;;;13.80;78.00;;;;;;5055642;28;20198;-77
2023/06/01 01:09:32;;;;;;;3.97;1.80;;;13.70;77.80;;;;;;5055626;28;20218;-76
2023/06/01 01:12:12;;;;;;;3.37;2.20;;;13.70;77.90;;;;;;5055891;28;20242;-78
2023/06/01 01:15:08;;;;;;;4.27;1.80;;;13.70;77.80;;;;;;5073736;28;20234;-77
2023/06/01 01:17:42;;;;;;;5.20;2.30;;;13.60;77.90;;;;;;5039162;28;20217;-76
2023/06/01 01:20:22;;;;;;;4.53;2.00;;;13.60;77.50;;;;;;5038989;28;20312;-77
2023/06/01 01:23:13;;;;;;;4.77;2.10;;;13.60;77.70;;;;;;5073661;28;20216;-77
2023/06/01 01:26:44;;;;;;;4.27;2.20;;;13.60;77.40;;;;;;5041698;28;20198;-77
2023/06/01 01:29:15;;;;;;;4.20;2.10;;;13.60;77.60;;;;;;5041821;28;20706;-77
2023/06/01 01:31:44;;;;;;;3.63;2.03;;;13.60;77.80;;;;;;5054976;28;20194;-76
2023/06/01 01:34:11;;;;;;;6.47;2.37;;;13.60;78.70;;;;;;5055186;28;20217;-77
2023/06/01 01:36:38;;;;;;;3.50;2.20;;;13.60;78.00;;;;;;5055258;28;20200;-77
2023/06/01 01:39:05;;;;;;;4.30;2.20;;;13.50;78.00;;;;;;5073139;28;20233;-78
2023/06/01 01:41:32;;;;;;;5.20;2.20;;;13.50;78.30;;;;;;5054946;28;20728;-77
2023/06/01 01:43:59;;;;;;;4.93;2.03;;;13.50;78.30;;;;;;5054715;28;20681;-77
2023/06/01 01:46:29;;;;;;;4.10;1.80;;;13.50;78.50;;;;;;5038121;28;20608;-78
2023/06/01 01:49:25;;;;;;;3.50;1.90;;;13.40;78.70;;;;;;5054964;28;20201;-77
2023/06/01 01:52:33;;;;;;;5.77;2.70;;;13.30;79.00;;;;;;5072927;28;20178;-76
2023/06/01 01:55:01;;;;;;;3.97;2.10;;;13.30;79.70;;;;;;5038175;28;20218;-76
2023/06/01 01:57:29;;;;;;;4.33;2.20;;;13.30;79.70;;;;;;5054950;28;20592;-77
2023/06/01 01:59:57;;;;;;;3.50;2.10;;;13.30;80.30;;;;;;5054681;28;20276;-76
2023/06/01 02:02:24;;;;;;;3.57;2.00;;;13.30;80.60;;;;;;5054663;28;20236;-76
2023/06/01 02:04:51;;;;;;;4.87;2.27;;;13.30;80.60;;;;;;5038197;28;20219;-77
2023/06/01 02:07:18;;;;;;;3.43;2.20;;;13.20;80.40;;;;;;5054679;28;20721;-77
2023/06/01 02:09:45;;;;;;;6.10;2.40;;;13.20;80.90;;;;;;5072398;28;20217;-78
2023/06/01 02:12:12;;;;;;;3.53;2.10;;;13.10;81.50;;;;;;5054538;28;20228;-78
2023/06/01 02:14:39;;;;;;;4.67;2.13;;;13.00;81.80;;;;;;5036957;28;20252;-78
2023/06/01 02:17:07;;;;;;;4.23;2.03;;;13.10;81.80;;;;;;5072418;28;20187;-77
2023/06/01 02:19:34;;;;;;;6.37;2.20;;;13.00;82.10;;;;;;5072271;28;20228;-78
2023/06/01 02:22:01;;;;;;;3.10;2.20;;;13.00;82.10;;;;;;5054264;28;20566;-78
2023/06/01 02:24:28;;;;;;;4.90;2.13;;;13.00;81.90;;;;;;5054246;28;20214;-78
2023/06/01 02:26:55;;;;;;;3.90;2.13;;;13.10;81.90;;;;;;5072369;28;20194;-77
2023/06/01 02:29:22;;;;;;;6.20;2.27;;;13.10;82.00;;;;;;5054434;28;20311;-78
2023/06/01 02:31:50;;;;;;;4.47;2.30;;;13.00;82.30;;;;;;5054345;28;20316;-78
2023/06/01 02:34:18;;;;;;;4.83;2.20;;;13.00;82.70;;;;;;5054192;28;20370;-78
2023/06/01 02:36:46;;;;;;;4.33;2.30;;;13.00;82.70;;;;;;5055027;28;20564;-78
2023/06/01 02:39:14;;;;;;;5.63;2.10;;;12.90;82.80;;;;;;5037612;28;20325;-77
2023/06/01 02:41:41;;;;;;;7.83;2.40;;;12.90;83.20;;;;;;5054266;28;20202;-76
2023/06/01 02:44:08;;;;;;;4.27;2.30;;;12.90;83.40;;;;;;5054198;28;20321;-77
2023/06/01 02:46:35;;;;;;;6.67;2.37;;;12.90;83.40;;;;;;5054062;28;20661;-77
2023/06/01 02:49:03;;;;;;;4.03;2.20;;;12.90;83.60;;;;;;5054128;28;20194;-77
2023/06/01 02:51:31;;;;;;;5.13;2.17;;;12.90;84.00;;;;;;5037480;28;20201;-77
2023/06/01 02:53:59;;;;;;;4.63;2.37;;;12.90;84.30;;;;;;5053995;28;20710;-77
2023/06/01 02:56:26;;;;;;;3.43;2.10;;;12.90;83.90;;;;;;5054086;28;20205;-78
2023/06/01 02:58:53;;;;;;;4.70;2.20;;;12.90;84.30;;;;;;5054027;28;20204;-78
2023/06/01 03:01:20;;;;;;;4.00;2.10;;;12.90;84.50;;;;;;5054237;28;20194;-78
2023/06/01 03:03:48;;;;;;;5.03;2.27;;;12.90;84.70;;;;;;5054546;28;20226;-77
2023/06/01 03:06:17;;;;;;;6.50;2.40;;;13.00;84.00;;;;;;5054534;28;20205;-78
2023/06/01 03:09:12;;;;;;;2.93;2.00;;;13.00;85.00;;;;;;5072020;28;20218;-78
2023/06/01 03:11:41;;;;;;;4.13;2.10;;;13.00;84.90;;;;;;5054160;28;20205;-78
2023/06/01 03:14:08;;;;;;;4.37;2.37;;;13.00;85.10;;;;;;5053620;28;20329;-77
2023/06/01 03:16:35;;;;;;;4.60;2.33;;;12.90;84.80;;;;;;5054158;28;20857;-76
2023/06/01 03:19:02;;;;;;;5.07;2.20;;;13.00;85.50;;;;;;5037278;28;20209;-76
2023/06/01 03:21:31;;;;;;;4.50;2.40;;;13.00;85.70;;;;;;5072469;28;20318;-77
2023/06/01 03:23:58;;;;;;;5.27;2.33;;;13.00;85.80;;;;;;5037392;28;20681;-77
2023/06/01 03:26:25;;;;;;;4.10;2.13;;;12.90;85.90;;;;;;5056569;28;20202;-77
2023/06/01 03:28:52;;;;;;;5.17;2.37;;;13.00;86.20;;;;;;5057545;28;20275;-77
2023/06/01 03:31:19;;;;;;;3.63;2.00;;;13.00;87.00;;;;;;5057945;28;20234;-76
2023/06/01 03:33:46;;;;;;;4.00;2.13;;;13.10;86.10;;;;;;5075667;28;20205;-77
2023/06/01 03:36:13;;;;;;;6.47;2.40;;;13.10;86.30;;;;;;5057586;28;20285;-76
2023/06/01 03:38:42;;;;;;;6.67;2.90;;;13.10;86.30;;;;;;5057760;28;20251;-77
2023/06/01 03:41:09;;;;;;;6.60;2.40;;;13.10;86.20;;;;;;5057274;28;20257;-77
2023/06/01 03:43:36;;;;;;;7.43;2.10;;;13.20;86.00;;;;;;5075204;28;20536;-77
2023/06/01 03:46:03;;;;;;;4.73;2.23;;;13.30;86.10;;;;;;5040688;28;20232;-76
2023/06/01 03:48:30;;;;;;;5.03;2.37;;;13.30;86.30;;;;;;5057113;28;20289;-76
2023/06/01 03:50:57;;;;;;;5.13;2.23;;;13.40;86.30;;;;;;5040654;28;20762;-77
2023/06/01 03:53:25;;;;;;;6.17;2.30;;;13.50;86.20;;;;;;5057241;28;20727;-77
2023/06/01 03:55:52;;;;;;;6.20;2.67;;;13.60;86.90;;;;;;5041076;28;20282;-77
2023/06/01 03:58:19;;;;;;;3.87;2.30;;;13.70;86.80;;;;;;5057290;28;20232;-78
2023/06/01 04:00:46;;;;;;;4.33;2.30;;;13.70;86.90;;;;;;5074879;28;20220;-77
2023/06/01 04:03:14;;;;;;;3.50;2.50;;;13.70;87.40;;;;;;5057506;28;20697;-78
2023/06/01 04:05:49;;;;;;;7.70;2.40;;;13.80;87.90;;;;;;5040357;28;20590;-77
2023/06/01 04:08:19;;;;;;;5.73;2.57;;;13.80;87.90;;;;;;5040482;28;20668;-77
2023/06/01 04:10:46;;;;;;;5.30;2.53;;;13.90;87.90;;;;;;5056730;28;20233;-77
2023/06/01 04:13:13;;;;;;;6.53;2.57;;;14.00;88.40;;;;;;5056644;28;20202;-77
2023/06/01 04:15:41;;;;;;;5.07;2.50;;;14.10;89.20;;;;;;5074632;28;20209;-77
2023/06/01 04:18:08;;;;;;;7.57;2.57;;;14.10;89.20;;;;;;5074674;28;20205;-76
2023/06/01 04:20:35;;;;;;;4.20;2.40;;;14.20;89.70;;;;;;5074434;28;20214;-77
2023/06/01 04:23:02;;;;;;;7.40;2.67;;;14.30;89.60;;;;;;5056572;28;20237;-77
2023/06/01 04:25:30;;;;;;;6.90;2.70;;;14.40;90.00;;;;;;5056521;28;20214;-77
2023/06/01 04:27:57;;;;;;;6.27;2.70;;;14.40;90.10;;;;;;5056757;28;20197;-77
2023/06/01 04:30:24;;;;;;;7.20;2.83;;;14.40;90.30;;;;;;5039828;28;20756;-77
2023/06/01 04:32:51;;;;;;;5.67;2.70;;;14.50;90.40;;;;;;5075538;28;20273;-77
2023/06/01 04:35:18;;;;;;;6.13;2.80;;;14.60;90.50;;;;;;5074353;28;20263;-77
2023/06/01 04:37:46;;;;;;;6.93;2.50;;;14.70;90.60;;;;;;5073773;28;20205;-78
2023/06/01 04:40:13;;;;;;;8.30;2.70;;;14.70;90.80;;;;;;5056620;28;20222;-77
2023/06/01 04:42:48;;;;;;;6.53;2.90;;;14.80;91.00;;;;;;5040191;28;20228;-77
2023/06/01 04:45:16;;;;;;;5.60;2.53;;;14.90;91.10;;;;;;5074411;28;20210;-77
2023/06/01 04:47:44;;;;;;;7.33;3.10;;;15.00;91.50;;;;;;5039728;28;20198;-77
2023/06/01 04:50:15;;;;;;;8.07;3.20;;;15.10;91.20;;;;;;5039510;28;20308;-77
2023/06/01 04:52:42;;;;;;;5.50;2.80;;;15.20;91.30;;;;;;5039866;28;20201;-76
2023/06/01 04:55:12;;;;;;;8.53;2.90;;;15.30;91.60;;;;;;5056158;28;20644;-76
2023/06/01 04:57:42;;;;;;;8.90;3.30;;;15.40;91.40;;;;;;5074098;28;20187;-77
2023/06/01 05:00:12;;;;;;;7.50;2.93;;;15.40;91.60;;;;;;5039093;28;20674;-75
2023/06/01 05:02:43;;;;;;;7.50;2.87;;;15.50;91.50;;;;;;5056151;28;20234;-76
2023/06/01 05:05:11;;;;;;;8.23;2.90;;;15.60;91.40;;;;;;5055808;28;20268;-75
2023/06/01 05:07:39;;;;;;;9.20;3.03;;;15.70;91.20;;;;;;5055401;28;20194;-76
2023/06/01 05:10:08;;;;;;;6.10;2.90;;;15.70;91.60;;;;;;5055275;28;20281;-76
2023/06/01 05:12:36;;;;;;;6.43;2.50;;;15.80;91.40;;;;;;5038812;28;20255;-76
2023/06/01 05:15:08;;;;;;;8.27;3.33;;;15.90;91.40;;;;;;5052234;28;20288;-77
2023/06/01 05:17:35;;;;;;;5.27;2.80;;;16.00;91.40;;;;;;5053567;28;20591;-76
2023/06/01 05:20:03;;;;;;;7.00;3.00;;;16.00;91.50;;;;;;5052028;28;20223;-76
2023/06/01 05:22:30;;;;;;;9.73;3.10;;;16.20;91.30;;;;;;5035271;28;20199;-76
2023/06/01 05:24:57;;;;;;;7.90;2.70;;;16.30;91.10;;;;;;5051678;28;20628;-76
2023/06/01 05:27:24;;;;;;;7.03;3.47;;;16.40;91.10;;;;;;5052961;28;20194;-75
2023/06/01 05:29:51;;;;;;;5.87;3.00;;;16.50;91.00;;;;;;5035456;28;20238;-75
2023/06/01 05:32:18;;;;;;;9.80;3.20;;;16.50;90.90;;;;;;5051606;28;20256;-76
2023/06/01 05:34:46;;;;;;;9.30;3.60;;;16.60;90.30;;;;;;5052828;28;20210;-77
2023/06/01 05:37:13;;;;;;;8.00;3.13;;;16.60;88.80;;;;;;5035203;28;20713;-76
2023/06/01 05:40:04;;;;;;;7.73;3.33;;;16.70;89.70;;;;;;5052754;28;20665;-77
2023/06/01 05:42:31;;;;;;;5.90;3.27;;;16.80;89.80;;;;;;5052802;28;20187;-79
2023/06/01 05:44:58;;;;;;;7.80;3.07;;;16.80;89.10;;;;;;5051477;28;20211;-77
2023/06/01 05:47:25;;;;;;;7.93;3.20;;;16.90;89.00;;;;;;5051629;28;20297;-78
2023/06/01 05:49:52;;;;;;;7.23;3.07;;;16.90;89.70;;;;;;5051417;28;20695;-75
2023/06/01 05:52:19;;;;;;;11.37;3.33;;;16.90;90.30;;;;;;5051463;28;20187;-76
2023/06/01 05:54:48;;;;;;;10.77;3.30;;;17.00;90.40;;;;;;5051707;28;20219;-86
2023/06/01 05:57:15;;;;;;;9.73;3.20;;;17.10;89.60;;;;;;5052776;28;20197;-86
2023/06/01 05:59:42;;;;;;;6.20;3.10;;;17.10;89.60;;;;;;5055263;28;20701;-85
2023/06/01 06:02:09;;;;;;;8.07;3.07;;;17.20;89.90;;;;;;5052526;28;20324;-79
2023/06/01 06:04:36;;;;;;;6.97;2.90;;;17.40;88.70;;;;;;5052026;28;20222;-78
2023/06/01 06:07:03;;;;;;;5.73;3.10;;;17.50;89.00;;;;;;5053048;28;20199;-82
2023/06/01 06:09:31;;;;;;;8.87;3.10;;;17.60;88.10;;;;;;5051521;28;20280;-78
2023/06/01 06:11:58;;;;;;;11.20;3.13;;;17.70;88.10;;;;;;5051277;28;20213;-81
2023/06/01 06:14:25;;;;;;;7.67;3.10;;;17.70;87.40;;;;;;5051198;28;20643;-80
2023/06/01 06:16:52;;;;;;;8.37;3.50;;;17.80;86.70;;;;;;5034536;28;20726;-77
2023/06/01 06:19:19;;;;;;;6.53;3.10;;;17.80;86.70;;;;;;5034693;28;20247;-78
2023/06/01 06:21:46;;;;;;;6.40;3.30;;;18.00;86.60;;;;;;5034367;28;20923;-79
2023/06/01 06:24:13;;;;;;;6.60;2.90;;;18.00;84.20;;;;;;5051079;28;20241;-77
2023/06/01 06:26:40;;;;;;;5.17;3.00;;;18.00;83.60;;;;;;5050749;28;20226;-75
2023/06/01 06:29:07;;;;;;;6.23;3.00;;;18.10;83.60;;;;;;5052385;28;20691;-79
2023/06/01 06:31:34;;;;;;;4.70;2.80;;;18.20;83.30;;;;;;5050758;28;20202;-77
2023/06/01 06:34:01;;;;;;;9.20;3.20;;;18.20;82.70;;;;;;5050736;28;20213;-77
2023/06/01 06:36:28;;;;;;;7.17;2.80;;;18.30;82.50;;;;;;5050943;28;20203;-77
2023/06/01 06:38:55;;;;;;;7.50;2.87;;;18.30;81.50;;;;;;5034199;28;20775;-79
2023/06/01 06:41:23;;;;;;;4.90;2.73;;;18.40;81.50;;;;;;5052352;28;20302;-78
2023/06/01 06:43:50;;;;;;;6.40;2.80;;;18.50;81.90;;;;;;5052017;28;20215;-80
2023/06/01 06:46:17;;;;;;;9.63;2.87;;;18.70;81.20;;;;;;5050757;28;20189;-77
2023/06/01 06:48:44;;;;;;;6.43;2.60;;;18.80;81.70;;;;;;5052363;28;20191;-78
2023/06/01 06:51:11;;;;;;;4.43;2.63;;;18.90;79.90;;;;;;5050795;28;20702;-83
2023/06/01 06:53:38;;;;;;;8.30;2.80;;;18.90;80.90;;;;;;5050671;28;20728;-78
2023/06/01 06:56:05;;;;;;;3.87;2.43;;;19.10;79.00;;;;;;5034241;28;20215;-79
2023/06/01 06:58:32;;;;;;;6.13;2.60;;;19.20;77.80;;;;;;5051942;28;20278;-78
2023/06/01 07:00:59;;;;;;;5.13;2.30;;;19.30;76.70;;;;;;5052058;28;20325;-79
2023/06/01 07:03:27;;;;;;;6.33;2.20;;;19.40;77.10;;;;;;5056261;28;20191;-79
2023/06/01 07:05:55;;;;;;;5.13;2.40;;;19.40;77.30;;;;;;5022470;28;20285;-79
2023/06/01 07:08:22;;;;;;;3.60;2.40;;;19.50;77.00;;;;;;5054769;28;20199;-78
2023/06/01 07:10:49;;;;;;;4.10;2.50;;;19.50;76.80;;;;;;5054551;28;20214;-79
2023/06/01 07:13:16;;;;;;;6.13;2.70;;;19.60;75.60;;;;;;5055166;28;20199;-84
2023/06/01 07:15:43;;;;;;;4.13;2.57;;;19.60;75.80;;;;;;5058176;28;20275;-79
2023/06/01 07:18:09;;;;;;;6.23;2.33;;;19.70;75.40;;;;;;5076355;28;20539;-78
2023/06/01 07:20:36;;;;;;;5.13;2.23;;;19.80;75.10;;;;;;5041577;28;20283;-79
2023/06/01 07:23:03;;;;;;;5.57;2.47;;;19.90;74.70;;;;;;5057660;28;20202;-79
2023/06/01 07:25:30;;;;;;;6.57;2.77;;;20.00;74.40;;;;;;5041055;28;20248;-80
2023/06/01 07:27:58;;;;;;;4.53;2.20;;;20.10;72.90;;;;;;5041617;28;20206;-80
2023/06/01 07:30:25;;;;;;;4.40;2.30;;;20.10;72.90;;;;;;5075218;28;20237;-77
2023/06/01 07:32:52;;;;;;;4.03;2.47;;;20.10;73.00;;;;;;5057446;28;20198;-80
2023/06/01 07:35:19;;;;;;;6.70;2.50;;;20.20;73.30;;;;;;5040541;28;20244;-84
2023/06/01 07:37:46;;;;;;;4.93;2.33;;;20.40;73.50;;;;;;5075377;28;20194;-81
2023/06/01 07:40:13;;;;;;;6.20;2.50;;;20.40;72.30;;;;;;5057393;28;20222;-80
2023/06/01 07:42:40;;;;;;;4.47;2.50;;;20.50;72.80;;;;;;5041014;28;20263;-82
2023/06/01 07:45:08;;;;;;;4.23;2.10;;;20.50;71.80;;;;;;5057359;28;20325;-77
2023/06/01 07:47:36;;;;;;;5.23;2.30;;;20.60;70.00;;;;;;5075155;28;20717;-79
2023/06/01 07:50:03;;;;;;;12.27;2.43;;;20.60;69.60;;;;;;5057006;28;20228;-78
2023/06/01 07:52:31;;;;;;;6.40;2.10;;;20.70;69.40;;;;;;5057261;28;20280;-79
2023/06/01 07:54:58;;;;;;;6.17;2.10;;;20.80;67.80;;;;;;5057253;28;20313;-81
2023/06/01 07:57:25;;;;;;;5.23;2.23;;;20.80;69.30;;;;;;5075361;28;20201;-78
2023/06/01 07:59:52;;;;;;;5.03;2.10;;;20.90;68.70;;;;;;5056871;28;20265;-78
2023/06/01 08:02:20;;;;;;;3.83;2.07;;;21.00;67.00;;;;;;5056720;28;20312;-79
2023/06/01 08:04:47;;;;;;;4.30;2.47;;;21.00;67.60;;;;;;5039773;28;20233;-77
2023/06/01 08:07:16;;;;;;;4.90;2.40;;;21.00;68.70;;;;;;5023450;28;20236;-77
2023/06/01 08:09:43;;;;;;;5.30;2.00;;;21.20;68.30;;;;;;5056477;28;20221;-77
2023/06/01 08:12:11;;;;;;;5.20;2.20;;;21.20;67.30;;;;;;5073140;28;20213;-76
2023/06/01 08:14:39;;;;;;;5.90;2.00;;;21.40;67.70;;;;;;5056379;28;20238;-79
2023/06/01 08:17:07;;;;;;;4.27;1.83;;;21.50;66.20;;;;;;5074402;28;20193;-78
2023/06/01 08:19:35;;;;;;;4.20;1.87;;;21.70;64.50;;;;;;5039925;28;20218;-79
2023/06/01 08:22:04;;;;;;;4.10;1.83;;;22.30;64.00;;;;;;5056288;28;20759;-78
2023/06/01 08:24:35;;;;;;;4.53;1.90;;;22.90;61.60;;;;;;5056655;28;20218;-80
2023/06/01 08:27:19;;;;;;;5.00;2.30;;;23.40;60.90;;;;;;5074696;28;20416;-78
2023/06/01 08:29:50;;;;;;;3.58;2.00;;;23.50;59.40;;;;;;5040515;28;20214;-79
2023/06/01 08:32:20;;;;;;;6.32;1.80;;;24.10;58.60;;;;;;5056564;28;20237;-81
2023/06/01 08:34:47;;;;;;;3.90;1.90;;;24.30;58.40;;;;;;5056832;28;20221;-75
2023/06/01 08:37:14;;;;;;;7.15;1.92;;;24.60;57.30;;;;;;5056689;28;20186;-80
2023/06/01 08:39:42;;;;;;;6.95;2.30;;;24.80;56.50;;;;;;5056380;28;20288;-78
2023/06/01 08:42:31;;;;;;;3.30;1.85;;;24.60;56.90;;;;;;5056145;28;20715;-80
2023/06/01 08:44:59;;;;;;;4.10;2.00;;;25.10;56.10;;;;;;5074048;28;20222;-81
2023/06/01 08:47:28;;;;;;;5.20;1.98;;;24.80;55.60;;;;;;5074142;28;20191;-78
2023/06/01 08:49:59;;;;;;;3.53;2.00;;;25.00;55.60;;;;;;5056424;28;20225;-81
2023/06/01 08:52:28;;;;;;;5.05;1.75;;;25.40;54.90;;;;;;5074287;28;20209;-84
2023/06/01 08:54:57;;;;;;;4.97;2.08;;;25.20;54.30;;;;;;5056007;28;20576;-77
2023/06/01 08:57:24;;;;;;;6.00;2.13;;;25.60;54.80;;;;;;5055844;28;20288;-79
2023/06/01 08:59:52;;;;;;;6.00;2.33;;;25.80;51.90;;;;;;5039505;28;20682;-80
2023/06/01 09:02:19;;;;;;;6.18;2.13;;;26.10;53.00;;;;;;5055738;28;20218;-76
2023/06/01 09:04:46;;;;;;;5.38;2.33;;;26.30;53.10;;;;;;5073760;28;20708;-83
2023/06/01 09:07:14;;;;;;;7.43;2.20;;;25.90;53.30;;;;;;5055692;28;20248;-81
2023/06/01 09:09:42;;;;;;;4.07;2.17;;;26.30;53.10;;;;;;5055826;28;20309;-77
2023/06/01 09:12:20;;;;;;;5.60;2.65;;;26.70;52.20;;;;;;5055494;28;20190;-77
2023/06/01 09:14:48;;;;;;;5.40;2.55;;;26.80;52.80;;;;;;5073509;28;20283;-80
2023/06/01 09:17:21;;;;;;;3.80;2.20;;;27.10;53.30;;;;;;5039369;28;20202;-75
2023/06/01 09:19:57;;;;;;;5.85;2.50;;;27.10;51.60;;;;;;5055592;28;20214;-78
2023/06/01 09:22:24;;;;;;;4.82;2.20;;;27.10;50.90;;;;;;5055334;28;20233;-70
2023/06/01 09:24:59;;;;;;;6.28;2.42;;;26.90;50.90;;;;;;5054584;28;20246;-76
2023/06/01 09:27:26;;;;;;;4.43;2.42;;;26.80;51.60;;;;;;5073122;28;20198;-75
2023/06/01 09:29:55;;;;;;;7.05;2.60;;;26.90;52.00;;;;;;5054930;28;20218;-73
2023/06/01 09:32:22;;;;;;;6.63;2.45;;;26.80;51.20;;;;;;5038669;28;20545;-74
2023/06/01 09:34:49;;;;;;;4.95;2.50;;;26.40;52.20;;;;;;5055110;28;20214;-77
2023/06/01 09:37:16;;;;;;;4.85;2.47;;;26.60;52.70;;;;;;5055192;28;20202;-74
2023/06/01 09:39:44;;;;;;;6.72;2.40;;;26.50;53.50;;;;;;5038403;28;20689;-74
2023/06/01 09:42:11;;;;;;;6.25;2.80;;;26.00;54.00;;;;;;5055074;28;20218;-73
2023/06/01 09:44:40;;;;;;;5.68;2.45;;;26.00;54.10;;;;;;5038451;28;20210;-74
2023/06/01 09:47:12;;;;;;;5.45;2.70;;;26.00;54.70;;;;;;5072585;28;20247;-72
2023/06/01 09:49:41;;;;;;;4.78;2.40;;;26.40;55.00;;;;;;5054658;28;20625;-72
2023/06/01 09:52:08;;;;;;;5.43;2.30;;;26.90;54.30;;;;;;5054770;28;20740;-75
2023/06/01 09:54:51;;;;;;;6.30;2.45;;;26.80;53.30;;;;;;5054737;28;20214;-74
2023/06/01 09:57:23;;;;;;;6.78;2.55;;;27.10;53.40;;;;;;5054517;28;20657;-75
2023/06/01 09:59:50;;;;;;;5.75;2.53;;;27.30;53.30;;;;;;5054866;28;20275;-76
2023/06/01 10:02:20;;;;;;;4.07;2.53;;;27.60;53.80;;;;;;5054535;28;20218;-74
2023/06/01 10:04:50;;;;;;;7.90;2.53;;;28.30;53.30;;;;;;5038033;28;20594;-82
2023/06/01 10:07:18;;;;;;;5.55;2.60;;;28.70;53.10;;;;;;5054445;28;20198;-74
2023/06/01 10:09:59;;;;;;;6.68;2.95;;;29.00;52.20;;;;;;5037162;28;20280;-72
2023/06/01 10:12:27;;;;;;;5.60;2.38;;;28.40;50.60;;;;;;5054761;28;20171;-82
2023/06/01 10:14:56;;;;;;;6.00;2.38;;;27.70;51.80;;;;;;5037977;28;20238;-78
2023/06/01 10:17:23;;;;;;;6.00;2.20;;;27.60;51.10;;;;;;5039450;28;20205;-81
2023/06/01 10:19:51;;;;;;;4.25;2.42;;;27.90;51.50;;;;;;5041286;28;20218;-79
2023/06/01 10:22:18;;;;;;;6.60;2.40;;;27.90;52.30;;;;;;5074972;28;20202;-80
2023/06/01 10:24:45;;;;;;;6.57;2.80;;;28.20;52.20;;;;;;5074382;28;20559;-76
2023/06/01 10:27:35;;;;;;;4.40;2.13;;;28.60;50.90;;;;;;5054067;28;20281;-75
2023/06/01 10:30:04;;;;;;;5.35;2.30;;;28.70;51.30;;;;;;5055386;28;20238;-74
2023/06/01 10:32:37;;;;;;;5.22;2.30;;;29.20;50.50;;;;;;5037299;28;20195;-75
2023/06/01 10:35:05;;;;;;;3.95;2.20;;;29.60;49.20;;;;;;5053002;28;20709;-75
2023/06/01 10:37:32;;;;;;;5.13;2.28;;;29.00;49.60;;;;;;5071890;28;20190;-78
2023/06/01 10:40:21;;;;;;;3.88;2.10;;;29.20;50.40;;;;;;5053669;28;20779;-76
2023/06/01 10:42:49;;;;;;;2.80;2.03;;;29.80;48.70;;;;;;5054801;28;20221;-78
2023/06/01 10:45:42;;;;;;;5.18;2.40;;;30.30;48.90;;;;;;5054344;28;20235;-76
2023/06/01 10:48:11;;;;;;;6.90;2.38;;;30.90;48.80;;;;;;5068568;28;20604;-76
2023/06/01 10:50:40;;;;;;;6.47;2.13;;;30.80;47.50;;;;;;5072717;28;20257;-84
2023/06/01 10:53:36;;;;;;;6.20;2.28;;;30.10;47.60;;;;;;5055561;28;20229;-84
2023/06/01 10:56:23;;;;;;;6.00;2.13;;;29.70;48.10;;;;;;4991995;28;20231;-81
2023/06/01 10:59:09;;;;;;;4.32;2.20;;;29.90;47.60;;;;;;4975756;28;20204;-79
2023/06/01 11:01:46;;;;;;;5.72;2.20;;;28.90;49.30;;;;;;4975245;28;20212;-77
2023/06/01 11:04:14;;;;;;;5.45;2.80;;;29.50;49.00;;;;;;4990081;28;20586;-76
2023/06/01 11:06:43;;;;;;;4.00;2.15;;;29.30;48.70;;;;;;4989956;28;20205;-76
2023/06/01 11:09:11;;;;;;;4.05;2.35;;;29.10;49.20;;;;;;4989791;28;20303;-76
2023/06/01 11:11:58;;;;;;;6.47;2.28;;;29.30;49.60;;;;;;4990086;28;20233;-76
2023/06/01 11:14:29;;;;;;;3.28;2.35;;;29.70;49.50;;;;;;4990030;28;20249;-81
2023/06/01 11:17:27;;;;;;;3.85;2.22;;;30.70;49.40;;;;;;4989954;28;20201;-80
2023/06/01 11:19:58;;;;;;;5.72;2.35;;;31.60;48.20;;;;;;4976953;28;20225;-79
2023/06/01 11:22:25;;;;;;;4.22;2.03;;;32.00;45.80;;;;;;4978564;28;20221;-79
2023/06/01 11:24:53;;;;;;;6.03;2.28;;;32.30;47.30;;;;;;4977098;28;20699;-74
2023/06/01 11:27:21;;;;;;;6.50;2.22;;;33.00;45.50;;;;;;4975577;28;20208;-84
2023/06/01 11:29:51;;;;;;;5.90;2.10;;;33.30;43.80;;;;;;4980092;28;20225;-86
2023/06/01 11:32:23;;;;;;;4.43;2.42;;;33.00;45.30;;;;;;5021004;28;20639;-87
2023/06/01 11:34:51;;;;;;;4.53;2.00;;;32.50;45.80;;;;;;5038801;28;20282;-83
2023/06/01 11:37:19;;;;;;;6.88;2.33;;;32.90;45.70;;;;;;5036407;28;20203;-79
2023/06/01 11:39:47;;;;;;;4.00;2.25;;;32.90;45.20;;;;;;5052730;28;20289;-84
2023/06/01 11:42:16;;;;;;;5.90;2.13;;;33.30;45.20;;;;;;5034610;28;20225;-83
2023/06/01 11:44:55;;;;;;;4.32;2.42;;;33.10;43.80;;;;;;5052126;28;20222;-86
2023/06/01 11:47:22;;;;;;;3.55;2.20;;;32.40;44.70;;;;;;5036207;28;20222;-87
2023/06/01 11:49:51;;;;;;;5.75;2.50;;;32.80;45.70;;;;;;5055727;28;20218;-87
2023/06/01 11:52:19;;;;;;;5.00;2.42;;;33.30;44.60;;;;;;5054727;28;20293;-80
2023/06/01 11:54:47;;;;;;;5.65;2.10;;;32.40;43.50;;;;;;5055002;28;20215;-88
2023/06/01 11:57:15;;;;;;;6.25;2.60;;;31.80;44.10;;;;;;5058159;28;20191;-85
2023/06/01 11:59:44;;;;;;;4.25;2.47;;;32.00;44.90;;;;;;5054056;28;20317;-84
2023/06/01 12:02:26;;;;;;;4.47;2.35;;;32.20;44.30;;;;;;5054971;28;20242;-87
2023/06/01 12:05:13;;;;;;;4.07;2.40;;;31.50;46.10;;;;;;5058534;28;20268;-85
2023/06/01 12:07:50;;;;;;;4.85;2.50;;;31.50;45.00;;;;;;5055634;28;20191;-86
2023/06/01 12:10:19;;;;;;;4.15;2.40;;;31.40;46.60;;;;;;5055282;28;20210;-85
2023/06/01 12:12:47;;;;;;;3.72;2.22;;;31.20;45.90;;;;;;5053564;28;20205;-83
2023/06/01 12:15:16;;;;;;;4.20;2.42;;;31.30;44.00;;;;;;5053552;28;20271;-88
2023/06/01 12:17:47;;;;;;;3.25;2.33;;;31.40;44.50;;;;;;5053131;28;20209;-85
2023/06/01 12:20:30;;;;;;;5.38;2.30;;;31.30;43.50;;;;;;5054455;28;20230;-80
2023/06/01 12:23:03;;;;;;;4.32;2.40;;;31.80;43.60;;;;;;5037103;28;20219;-89
2023/06/01 12:25:31;;;;;;;5.50;2.28;;;32.10;43.50;;;;;;5053203;28;20260;-83
2023/06/01 12:28:07;;;;;;;4.88;2.38;;;31.60;43.90;;;;;;5053182;28;20301;-84
2023/06/01 12:30:34;;;;;;;4.20;2.30;;;31.70;44.60;;;;;;5036849;28;20218;-82
2023/06/01 12:33:04;;;;;;;4.30;2.40;;;31.70;43.80;;;;;;5056038;28;20273;-85
2023/06/01 12:35:31;;;;;;;7.43;2.35;;;30.60;45.10;;;;;;5037274;28;20207;-86
2023/06/01 12:38:12;;;;;;;5.68;2.67;;;30.60;46.10;;;;;;5053816;28;20206;-83
2023/06/01 12:40:39;;;;;;;4.72;2.30;;;30.80;46.40;;;;;;5053549;28;20218;-84
2023/06/01 12:43:18;;;;;;;6.82;2.38;;;31.40;45.40;;;;;;5053986;28;20298;-83
2023/06/01 12:45:46;;;;;;;3.38;2.10;;;32.20;45.90;;;;;;5052895;28;20245;-87
2023/06/01 12:48:33;;;;;;;4.75;2.38;;;32.30;44.60;;;;;;5052523;28;20643;-88
2023/06/01 12:51:00;;;;;;;4.97;2.15;;;31.80;43.20;;;;;;5052577;28;20686;-86
2023/06/01 12:53:28;;;;;;;7.65;2.30;;;32.10;44.00;;;;;;5052136;28;21242;-85
2023/06/01 12:55:56;;;;;;;4.60;2.50;;;32.10;43.40;;;;;;5052158;28;20682;-87
2023/06/01 12:58:23;;;;;;;4.70;2.20;;;32.30;43.90;;;;;;5052154;28;20195;-84